Aviation Digital Data Service (ADDS)

Output produced by METARs form (0902 UTC 18 November 2018)
found at http://www.aviationweather.gov/metar/data/
 
Forecast for: RJSF (FUKUSHIMA ARPT , JP)
Text: TAF RJSF 180505Z 1806/1912 13004KT 9999 FEW030
Forecast period: 0600 UTC 18 November 2018 to 0000 UTC 19 November 2018
Forecast type: FROM: standard forecast or significant change
Winds: from the SE (130 degrees) at 5 MPH (4 knots; 2.1 m/s)
Visibility: 6 or more miles 10+ km)
Ceiling: at least 12,000 feet AGL
Clouds: few clouds at 3000 feet AGL
Weather: no significant weather forecast for this period
Text: TEMPO 1821/1903 3000 SHRA BR FEW002 BKN005 BKN015
Forecast period: 2100 UTC 18 November 2018 to 0300 UTC 19 November 2018
Forecast type: TEMPORARY: The following changes expected for less than half the time period
Visibility: 1.86 miles (2.99 km)
Ceiling: 500 feet AGL
Clouds: few clouds at 200 feet AGL
broken clouds at 500 feet AGL
broken clouds at 1500 feet AGL
Weather: SHRA BR  (rain showers, mist)
Text: BECMG 1900/1903 34015KT
Forecast period: 0000 to 1200 UTC 19 November 2018
Forecast type: BECOMING: Conditions expected to become as follows by 0300 UTC 19 November 2018
Winds: from the NNW (340 degrees) at 17 MPH (15 knots; 7.7 m/s)
Visibility: 6 or more miles 10+ km)
Ceiling: at least 12,000 feet AGL
Clouds: few clouds at 3000 feet AGL
Weather: no significant weather forecast for this period